East Pepperell, Massachusetts
Current Conditions -  °F | °C
As of 4:51 AM on Wednesday 22 Oct 2014 (Local Time) from KASH Reporting Station
Light Rain Light Rain  
Wind Chill: 50°   Ceiling: 1000
Heat Index: 50°   Visibility: 4mi
Dew Point: 49°   Wind: 9mph
Humidity: 96%   Direction: 360°N
Pressure: 30.02"   Gusts: NA
Location:  42.6719°N, 71.6029°W
Report Text: KASH 220851Z AUTO 36008KT 4SM -RA BR OVC010 10/09 A3002 RMK AO2 53000 60000 T01000094 CIG 008V014 RAB32 P0000 SLP416 $
Loading
Personal Weather Stations






























Interactive Weather Map
Tropical Storm Tracking
New forecast layout! Learn more

10-Day Weather Forecast

Advertisements
Track Severe Weather on mobile